AZU2732 SBKP-SBCX
Flight info
| Callsign | AZU2732 |
|---|---|
| Flight time | 1h 15m |
| Altitude | 34000 |
| Route | SOVSI DCT ARTUT UZ38 VUKMO |
| Aircraft | A320/M-SDE3FGHIRWY/LB1 |
Departure
| Time | 2026-05-07 11:34 |
|---|---|
| Airport | Viracopos International Airport (SBKP) |
Arrival
| Time | 2026-05-07 12:49 |
|---|---|
| Airport | Hugo Cantergiani Regional Airport (SBCX) |
| Time | Latitude | Longitude | Altitude | Speed | Heading |
|---|---|---|---|---|---|
| 2026-05-07 11:20 | -23.00515 | -47.14895 | 2169 ft | 0 kts | 39° |
| 2026-05-07 11:26 | -23.00516 | -47.14896 | 2169 ft | 2 kts | 39° |
| 2026-05-07 11:27 | -23.00537 | -47.14912 | 2166 ft | 4 kts | 25° |
| 2026-05-07 11:27 | -23.00562 | -47.14920 | 2165 ft | 4 kts | 353° |
| 2026-05-07 11:27 | -23.00580 | -47.14912 | 2164 ft | 1 kts | 308° |
| 2026-05-07 11:27 | -23.00583 | -47.14908 | 2160 ft | 0 kts | 308° |
| 2026-05-07 11:31 | -23.00566 | -47.14930 | 2164 ft | 9 kts | 308° |
| 2026-05-07 11:31 | -23.00514 | -47.15004 | 2165 ft | 15 kts | 308° |
| 2026-05-07 11:31 | -23.00439 | -47.15110 | 2167 ft | 17 kts | 308° |
| 2026-05-07 11:31 | -23.00358 | -47.15157 | 2165 ft | 15 kts | 26° |
| 2026-05-07 11:32 | -23.00150 | -47.14980 | 2166 ft | 22 kts | 37° |
| 2026-05-07 11:32 | -23.00033 | -47.14880 | 2160 ft | 25 kts | 45° |
| 2026-05-07 11:32 | -22.99918 | -47.14750 | 2164 ft | 21 kts | 43° |
| 2026-05-07 11:33 | -22.99899 | -47.14631 | 2162 ft | 12 kts | 129° |
| 2026-05-07 11:33 | -22.99948 | -47.14554 | 2163 ft | 41 kts | 126° |
| 2026-05-07 11:33 | -23.00273 | -47.14098 | 2170 ft | 108 kts | 128° |
| 2026-05-07 11:33 | -23.00839 | -47.13304 | 2161 ft | 159 kts | 127° |
| 2026-05-07 11:34 | -23.01537 | -47.12314 | 2537 ft | 172 kts | 128° |
| 2026-05-07 11:34 | -23.02301 | -47.11333 | 3258 ft | 173 kts | 136° |
| 2026-05-07 11:34 | -23.03479 | -47.10910 | 3640 ft | 196 kts | 186° |
| 2026-05-07 11:34 | -23.04868 | -47.11301 | 3924 ft | 217 kts | 199° |
| 2026-05-07 11:35 | -23.06368 | -47.11886 | 4166 ft | 242 kts | 201° |
| 2026-05-07 11:35 | -23.08021 | -47.12559 | 4500 ft | 265 kts | 201° |
| 2026-05-07 11:35 | -23.09829 | -47.13288 | 4970 ft | 286 kts | 202° |
| 2026-05-07 11:35 | -23.11545 | -47.14354 | 5685 ft | 291 kts | 222° |
| 2026-05-07 11:36 | -23.13068 | -47.15806 | 6585 ft | 292 kts | 223° |
| 2026-05-07 11:36 | -23.14579 | -47.17252 | 7405 ft | 295 kts | 223° |
| 2026-05-07 11:36 | -23.16152 | -47.18751 | 8210 ft | 299 kts | 222° |
| 2026-05-07 11:36 | -23.17709 | -47.20231 | 8997 ft | 303 kts | 222° |
| 2026-05-07 11:37 | -23.19338 | -47.21714 | 9774 ft | 307 kts | 215° |
| 2026-05-07 11:37 | -23.21218 | -47.22839 | 10417 ft | 313 kts | 201° |
| 2026-05-07 11:37 | -23.23354 | -47.23526 | 10641 ft | 335 kts | 193° |
| 2026-05-07 11:37 | -23.25686 | -47.24137 | 10987 ft | 350 kts | 192° |
| 2026-05-07 11:38 | -23.28075 | -47.24767 | 11596 ft | 356 kts | 192° |
| 2026-05-07 11:38 | -23.30472 | -47.25407 | 12268 ft | 359 kts | 193° |
| 2026-05-07 11:38 | -23.32923 | -47.26069 | 12948 ft | 361 kts | 193° |
| 2026-05-07 11:38 | -23.35370 | -47.26734 | 13607 ft | 364 kts | 193° |
| 2026-05-07 11:39 | -23.37808 | -47.27395 | 14203 ft | 366 kts | 193° |
| 2026-05-07 11:39 | -23.40293 | -47.28068 | 14757 ft | 369 kts | 193° |
| 2026-05-07 11:39 | -23.42793 | -47.28745 | 15314 ft | 372 kts | 193° |
| 2026-05-07 11:39 | -23.45308 | -47.29430 | 15883 ft | 374 kts | 193° |
| 2026-05-07 11:40 | -23.47812 | -47.30113 | 16446 ft | 376 kts | 193° |
| 2026-05-07 11:40 | -23.50357 | -47.30804 | 16957 ft | 380 kts | 193° |
| 2026-05-07 11:40 | -23.52926 | -47.31502 | 17087 ft | 381 kts | 193° |
| 2026-05-07 11:40 | -23.55500 | -47.32200 | 17317 ft | 383 kts | 193° |
| 2026-05-07 11:41 | -23.58092 | -47.32902 | 17927 ft | 384 kts | 193° |
| 2026-05-07 11:41 | -23.60702 | -47.33612 | 18491 ft | 387 kts | 193° |
| 2026-05-07 11:41 | -23.63318 | -47.34323 | 19001 ft | 389 kts | 193° |
| 2026-05-07 11:41 | -23.65913 | -47.35027 | 19503 ft | 390 kts | 194° |
| 2026-05-07 11:42 | -23.68554 | -47.35742 | 20021 ft | 391 kts | 194° |
| 2026-05-07 11:42 | -23.71206 | -47.36461 | 20523 ft | 393 kts | 195° |
| 2026-05-07 11:42 | -23.73860 | -47.37186 | 21044 ft | 394 kts | 195° |
| 2026-05-07 11:42 | -23.76523 | -47.37916 | 21519 ft | 396 kts | 195° |
| 2026-05-07 11:43 | -23.79203 | -47.38652 | 21979 ft | 398 kts | 195° |
| 2026-05-07 11:43 | -23.81905 | -47.39391 | 22446 ft | 400 kts | 195° |
| 2026-05-07 11:43 | -23.84619 | -47.40132 | 22885 ft | 404 kts | 195° |
| 2026-05-07 11:43 | -23.87356 | -47.40877 | 23327 ft | 406 kts | 195° |
| 2026-05-07 11:44 | -23.90104 | -47.41623 | 23756 ft | 408 kts | 196° |
| 2026-05-07 11:44 | -23.92874 | -47.42375 | 24131 ft | 410 kts | 196° |
| 2026-05-07 11:44 | -23.95649 | -47.43129 | 24512 ft | 411 kts | 196° |
| 2026-05-07 11:44 | -23.98392 | -47.43878 | 24920 ft | 412 kts | 196° |
| 2026-05-07 11:45 | -24.01178 | -47.44642 | 25318 ft | 413 kts | 196° |
| 2026-05-07 11:45 | -24.03977 | -47.45411 | 25697 ft | 414 kts | 196° |
| 2026-05-07 11:45 | -24.06777 | -47.46181 | 26086 ft | 415 kts | 197° |
| 2026-05-07 11:45 | -24.09585 | -47.46957 | 26468 ft | 416 kts | 197° |
| 2026-05-07 11:46 | -24.12325 | -47.47948 | 26837 ft | 415 kts | 203° |
| 2026-05-07 11:46 | -24.15031 | -47.49064 | 27194 ft | 416 kts | 203° |
| 2026-05-07 11:46 | -24.17750 | -47.50181 | 27577 ft | 417 kts | 203° |
| 2026-05-07 11:46 | -24.20483 | -47.51300 | 27956 ft | 419 kts | 203° |
| 2026-05-07 11:47 | -24.23181 | -47.52403 | 28330 ft | 420 kts | 203° |
| 2026-05-07 11:47 | -24.25920 | -47.53524 | 28697 ft | 421 kts | 203° |
| 2026-05-07 11:47 | -24.28636 | -47.54639 | 29055 ft | 422 kts | 203° |
| 2026-05-07 11:47 | -24.31384 | -47.55772 | 29408 ft | 423 kts | 203° |
| 2026-05-07 11:48 | -24.34144 | -47.56911 | 29758 ft | 424 kts | 203° |
| 2026-05-07 11:48 | -24.36915 | -47.58053 | 30090 ft | 426 kts | 203° |
| 2026-05-07 11:48 | -24.39696 | -47.59199 | 30361 ft | 427 kts | 203° |
| 2026-05-07 11:48 | -24.42488 | -47.60345 | 30609 ft | 429 kts | 204° |
| 2026-05-07 11:49 | -24.45288 | -47.61496 | 30863 ft | 430 kts | 204° |
| 2026-05-07 11:49 | -24.48092 | -47.62649 | 31131 ft | 431 kts | 204° |
| 2026-05-07 11:49 | -24.50901 | -47.63809 | 31424 ft | 431 kts | 204° |
| 2026-05-07 11:49 | -24.53670 | -47.64953 | 31811 ft | 428 kts | 204° |
| 2026-05-07 11:50 | -24.56450 | -47.66100 | 32216 ft | 426 kts | 204° |
| 2026-05-07 11:50 | -24.59223 | -47.67248 | 32612 ft | 424 kts | 204° |
| 2026-05-07 11:50 | -24.61970 | -47.68385 | 33004 ft | 421 kts | 204° |
| 2026-05-07 11:50 | -24.64705 | -47.69517 | 33418 ft | 419 kts | 204° |
| 2026-05-07 11:51 | -24.67432 | -47.70643 | 33806 ft | 417 kts | 204° |
| 2026-05-07 11:51 | -24.70143 | -47.71763 | 34016 ft | 415 kts | 204° |
| 2026-05-07 11:51 | -24.72827 | -47.72873 | 34055 ft | 407 kts | 204° |
| 2026-05-07 11:52 | -24.78090 | -47.75050 | 34047 ft | 402 kts | 204° |
| 2026-05-07 11:52 | -24.83317 | -47.77224 | 34059 ft | 401 kts | 204° |
| 2026-05-07 11:53 | -24.88545 | -47.79399 | 34050 ft | 401 kts | 204° |
| 2026-05-07 11:53 | -24.93741 | -47.81557 | 34049 ft | 401 kts | 205° |
| 2026-05-07 11:54 | -24.98968 | -47.83723 | 34047 ft | 401 kts | 205° |
| 2026-05-07 11:54 | -25.04193 | -47.85903 | 34050 ft | 401 kts | 205° |
| 2026-05-07 11:55 | -25.09414 | -47.88083 | 34047 ft | 401 kts | 205° |
| 2026-05-07 11:55 | -25.14635 | -47.90262 | 34039 ft | 401 kts | 205° |
| 2026-05-07 11:56 | -25.19851 | -47.92442 | 34048 ft | 401 kts | 205° |
| 2026-05-07 11:56 | -25.25037 | -47.94603 | 34044 ft | 401 kts | 205° |
| 2026-05-07 11:57 | -25.30264 | -47.96790 | 34040 ft | 401 kts | 205° |
| 2026-05-07 11:57 | -25.35484 | -47.98977 | 34034 ft | 401 kts | 205° |
| 2026-05-07 11:58 | -25.40707 | -48.01158 | 34033 ft | 401 kts | 205° |
| 2026-05-07 11:58 | -25.45929 | -48.03346 | 34040 ft | 402 kts | 206° |
| 2026-05-07 11:59 | -25.51162 | -48.05542 | 34036 ft | 402 kts | 206° |
| 2026-05-07 11:59 | -25.56398 | -48.07746 | 34033 ft | 402 kts | 206° |
| 2026-05-07 12:00 | -25.61609 | -48.09952 | 34031 ft | 401 kts | 208° |
| 2026-05-07 12:00 | -25.66375 | -48.12976 | 34032 ft | 395 kts | 217° |
| 2026-05-07 12:01 | -25.70998 | -48.16263 | 34027 ft | 395 kts | 217° |
| 2026-05-07 12:01 | -25.75633 | -48.19554 | 34043 ft | 395 kts | 217° |
| 2026-05-07 12:02 | -25.80264 | -48.22855 | 34044 ft | 395 kts | 217° |
| 2026-05-07 12:02 | -25.84899 | -48.26165 | 34040 ft | 396 kts | 217° |
| 2026-05-07 12:03 | -25.89532 | -48.29475 | 34032 ft | 396 kts | 217° |
| 2026-05-07 12:03 | -25.94168 | -48.32793 | 34032 ft | 396 kts | 217° |
| 2026-05-07 12:04 | -25.98814 | -48.36114 | 34032 ft | 396 kts | 217° |
| 2026-05-07 12:04 | -26.03430 | -48.39424 | 34040 ft | 397 kts | 217° |
| 2026-05-07 12:05 | -26.08078 | -48.42754 | 34041 ft | 397 kts | 217° |
| 2026-05-07 12:05 | -26.12725 | -48.46082 | 34035 ft | 397 kts | 218° |
| 2026-05-07 12:06 | -26.17372 | -48.49417 | 34034 ft | 398 kts | 218° |
| 2026-05-07 12:06 | -26.22025 | -48.52760 | 34037 ft | 398 kts | 218° |
| 2026-05-07 12:07 | -26.26675 | -48.56118 | 34034 ft | 398 kts | 218° |
| 2026-05-07 12:07 | -26.31305 | -48.59456 | 34034 ft | 398 kts | 218° |
| 2026-05-07 12:08 | -26.35959 | -48.62814 | 34045 ft | 398 kts | 218° |
| 2026-05-07 12:08 | -26.39832 | -48.65617 | 34043 ft | 399 kts | 218° |
| 2026-05-07 12:09 | -26.44500 | -48.68996 | 34024 ft | 400 kts | 218° |
| 2026-05-07 12:09 | -26.49939 | -48.72944 | 34022 ft | 401 kts | 218° |
| 2026-05-07 12:10 | -26.54601 | -48.76375 | 34020 ft | 401 kts | 218° |
| 2026-05-07 12:10 | -26.58473 | -48.79242 | 34024 ft | 401 kts | 218° |
| 2026-05-07 12:11 | -26.63131 | -48.82691 | 34028 ft | 401 kts | 218° |
| 2026-05-07 12:11 | -26.67794 | -48.86139 | 34040 ft | 402 kts | 219° |
| 2026-05-07 12:12 | -26.72471 | -48.89559 | 34042 ft | 401 kts | 218° |
| 2026-05-07 12:12 | -26.77154 | -48.92960 | 34057 ft | 401 kts | 218° |
| 2026-05-07 12:13 | -26.81797 | -48.96344 | 34042 ft | 400 kts | 219° |
| 2026-05-07 12:13 | -26.86450 | -48.99750 | 34031 ft | 400 kts | 219° |
| 2026-05-07 12:14 | -26.91113 | -49.03172 | 34034 ft | 400 kts | 219° |
| 2026-05-07 12:14 | -26.95777 | -49.06599 | 34039 ft | 401 kts | 219° |
| 2026-05-07 12:15 | -27.00415 | -49.10002 | 34047 ft | 400 kts | 219° |
| 2026-05-07 12:15 | -27.05079 | -49.13429 | 34045 ft | 400 kts | 219° |
| 2026-05-07 12:16 | -27.09744 | -49.16858 | 34042 ft | 400 kts | 219° |
| 2026-05-07 12:16 | -27.14363 | -49.20263 | 34038 ft | 399 kts | 219° |
| 2026-05-07 12:17 | -27.19008 | -49.23687 | 34040 ft | 399 kts | 219° |
| 2026-05-07 12:17 | -27.23653 | -49.27112 | 34038 ft | 399 kts | 219° |
| 2026-05-07 12:18 | -27.28307 | -49.30550 | 34068 ft | 400 kts | 219° |
| 2026-05-07 12:18 | -27.32943 | -49.33982 | 34057 ft | 399 kts | 219° |
| 2026-05-07 12:19 | -27.37591 | -49.37420 | 34054 ft | 400 kts | 219° |
| 2026-05-07 12:19 | -27.42234 | -49.40856 | 34057 ft | 399 kts | 219° |
| 2026-05-07 12:20 | -27.46847 | -49.44275 | 34056 ft | 400 kts | 219° |
| 2026-05-07 12:20 | -27.51497 | -49.47736 | 34048 ft | 400 kts | 219° |
| 2026-05-07 12:21 | -27.56144 | -49.51186 | 34050 ft | 400 kts | 219° |
| 2026-05-07 12:21 | -27.60798 | -49.54630 | 34057 ft | 400 kts | 219° |
| 2026-05-07 12:22 | -27.65439 | -49.58066 | 34059 ft | 401 kts | 219° |
| 2026-05-07 12:22 | -27.70117 | -49.61537 | 34055 ft | 402 kts | 220° |
| 2026-05-07 12:23 | -27.74787 | -49.65008 | 34046 ft | 402 kts | 219° |
| 2026-05-07 12:23 | -27.79518 | -49.68425 | 34047 ft | 403 kts | 218° |
| 2026-05-07 12:24 | -27.84278 | -49.71784 | 34048 ft | 404 kts | 218° |
| 2026-05-07 12:24 | -27.89006 | -49.75136 | 34061 ft | 404 kts | 219° |
| 2026-05-07 12:25 | -27.93756 | -49.78532 | 34064 ft | 403 kts | 219° |
| 2026-05-07 12:25 | -27.98498 | -49.81930 | 34063 ft | 404 kts | 219° |
| 2026-05-07 12:26 | -28.03250 | -49.85337 | 34056 ft | 404 kts | 219° |
| 2026-05-07 12:26 | -28.07970 | -49.88720 | 34054 ft | 404 kts | 219° |
| 2026-05-07 12:27 | -28.12720 | -49.92128 | 34054 ft | 403 kts | 219° |
| 2026-05-07 12:27 | -28.15085 | -49.93827 | 33818 ft | 400 kts | 219° |
| 2026-05-07 12:27 | -28.17427 | -49.95511 | 33548 ft | 397 kts | 219° |
| 2026-05-07 12:27 | -28.19755 | -49.97183 | 33280 ft | 394 kts | 219° |
| 2026-05-07 12:28 | -28.22066 | -49.98842 | 32806 ft | 390 kts | 219° |
| 2026-05-07 12:28 | -28.24351 | -50.00481 | 32329 ft | 388 kts | 219° |
| 2026-05-07 12:28 | -28.26615 | -50.02109 | 31862 ft | 385 kts | 219° |
| 2026-05-07 12:28 | -28.28870 | -50.03734 | 31401 ft | 382 kts | 219° |
| 2026-05-07 12:29 | -28.31080 | -50.05327 | 30942 ft | 379 kts | 219° |
| 2026-05-07 12:29 | -28.33299 | -50.06927 | 30492 ft | 377 kts | 219° |
| 2026-05-07 12:29 | -28.35498 | -50.08512 | 30032 ft | 374 kts | 219° |
| 2026-05-07 12:29 | -28.37689 | -50.10093 | 29554 ft | 371 kts | 219° |
| 2026-05-07 12:30 | -28.39856 | -50.11657 | 29130 ft | 367 kts | 219° |
| 2026-05-07 12:30 | -28.41993 | -50.13202 | 28705 ft | 362 kts | 219° |
| 2026-05-07 12:30 | -28.44110 | -50.14733 | 28302 ft | 358 kts | 219° |
| 2026-05-07 12:30 | -28.46198 | -50.16244 | 27888 ft | 354 kts | 219° |
| 2026-05-07 12:31 | -28.48260 | -50.17734 | 27498 ft | 350 kts | 219° |
| 2026-05-07 12:31 | -28.50313 | -50.19220 | 27106 ft | 350 kts | 219° |
| 2026-05-07 12:31 | -28.52372 | -50.20715 | 26706 ft | 350 kts | 219° |
| 2026-05-07 12:31 | -28.54424 | -50.22207 | 26326 ft | 350 kts | 219° |
| 2026-05-07 12:32 | -28.56474 | -50.23698 | 25918 ft | 348 kts | 219° |
| 2026-05-07 12:32 | -28.58493 | -50.25163 | 25503 ft | 348 kts | 218° |
| 2026-05-07 12:32 | -28.60531 | -50.26639 | 25097 ft | 347 kts | 218° |
| 2026-05-07 12:32 | -28.62564 | -50.28111 | 24664 ft | 346 kts | 218° |
| 2026-05-07 12:33 | -28.66622 | -50.31057 | 23808 ft | 346 kts | 218° |
| 2026-05-07 12:33 | -28.68657 | -50.32539 | 23321 ft | 347 kts | 218° |
| 2026-05-07 12:33 | -28.70689 | -50.34017 | 22859 ft | 346 kts | 218° |
| 2026-05-07 12:34 | -28.72699 | -50.35508 | 22435 ft | 342 kts | 221° |
| 2026-05-07 12:34 | -28.74574 | -50.37154 | 22011 ft | 339 kts | 223° |
| 2026-05-07 12:34 | -28.76428 | -50.38796 | 21609 ft | 337 kts | 223° |
| 2026-05-07 12:34 | -28.78280 | -50.40436 | 21203 ft | 336 kts | 223° |
| 2026-05-07 12:35 | -28.80127 | -50.42068 | 20797 ft | 336 kts | 223° |
| 2026-05-07 12:35 | -28.81981 | -50.43706 | 20381 ft | 336 kts | 223° |
| 2026-05-07 12:35 | -28.83830 | -50.45339 | 19978 ft | 335 kts | 223° |
| 2026-05-07 12:35 | -28.85651 | -50.46947 | 19595 ft | 335 kts | 223° |
| 2026-05-07 12:36 | -28.87490 | -50.48574 | 19194 ft | 335 kts | 223° |
| 2026-05-07 12:36 | -28.89330 | -50.50201 | 18794 ft | 335 kts | 222° |
| 2026-05-07 12:36 | -28.91174 | -50.51834 | 18395 ft | 335 kts | 222° |
| 2026-05-07 12:36 | -28.93019 | -50.53471 | 17971 ft | 336 kts | 222° |
| 2026-05-07 12:37 | -28.94864 | -50.55110 | 17571 ft | 335 kts | 222° |
| 2026-05-07 12:37 | -28.96702 | -50.56739 | 17183 ft | 334 kts | 222° |
| 2026-05-07 12:37 | -28.98538 | -50.58366 | 16796 ft | 333 kts | 222° |
| 2026-05-07 12:37 | -29.00366 | -50.59987 | 16411 ft | 332 kts | 222° |
| 2026-05-07 12:38 | -29.02189 | -50.61606 | 16031 ft | 332 kts | 222° |
| 2026-05-07 12:38 | -29.04010 | -50.63174 | 15649 ft | 332 kts | 219° |
| 2026-05-07 12:38 | -29.05913 | -50.64678 | 15281 ft | 332 kts | 218° |
| 2026-05-07 12:38 | -29.07844 | -50.66131 | 14900 ft | 333 kts | 217° |
| 2026-05-07 12:39 | -29.09792 | -50.67569 | 14523 ft | 332 kts | 217° |
| 2026-05-07 12:39 | -29.11735 | -50.69006 | 14146 ft | 332 kts | 217° |
| 2026-05-07 12:39 | -29.13521 | -50.70655 | 13721 ft | 329 kts | 227° |
| 2026-05-07 12:39 | -29.15181 | -50.72472 | 13240 ft | 331 kts | 228° |
| 2026-05-07 12:40 | -29.16806 | -50.74271 | 12804 ft | 331 kts | 228° |
| 2026-05-07 12:40 | -29.18051 | -50.75653 | 12477 ft | 331 kts | 228° |
| 2026-05-07 12:40 | -29.19703 | -50.77487 | 12021 ft | 331 kts | 228° |
| 2026-05-07 12:40 | -29.21362 | -50.79329 | 11574 ft | 331 kts | 228° |
| 2026-05-07 12:41 | -29.22997 | -50.81141 | 11225 ft | 329 kts | 228° |
| 2026-05-07 12:41 | -29.24613 | -50.82931 | 11105 ft | 318 kts | 228° |
| 2026-05-07 12:41 | -29.26186 | -50.84671 | 10947 ft | 309 kts | 228° |
| 2026-05-07 12:41 | -29.27727 | -50.86375 | 10617 ft | 307 kts | 228° |
| 2026-05-07 12:42 | -29.29258 | -50.88072 | 10285 ft | 305 kts | 229° |
| 2026-05-07 12:42 | -29.30786 | -50.89770 | 9931 ft | 305 kts | 229° |
| 2026-05-07 12:42 | -29.32270 | -50.91427 | 9150 ft | 315 kts | 229° |
| 2026-05-07 12:42 | -29.33848 | -50.93188 | 8314 ft | 315 kts | 229° |
| 2026-05-07 12:43 | -29.35397 | -50.94910 | 7797 ft | 303 kts | 232° |
| 2026-05-07 12:43 | -29.36500 | -50.96821 | 7403 ft | 274 kts | 260° |
| 2026-05-07 12:43 | -29.36648 | -50.98843 | 7054 ft | 248 kts | 286° |
| 2026-05-07 12:43 | -29.36023 | -51.00585 | 6719 ft | 225 kts | 310° |
| 2026-05-07 12:44 | -29.34996 | -51.01815 | 6402 ft | 209 kts | 319° |
| 2026-05-07 12:44 | -29.33978 | -51.02937 | 6103 ft | 198 kts | 319° |
| 2026-05-07 12:44 | -29.33023 | -51.03996 | 5842 ft | 184 kts | 319° |
| 2026-05-07 12:44 | -29.32141 | -51.04978 | 5609 ft | 169 kts | 319° |
| 2026-05-07 12:45 | -29.31339 | -51.05871 | 5416 ft | 153 kts | 319° |
| 2026-05-07 12:45 | -29.30607 | -51.06687 | 5268 ft | 145 kts | 320° |
| 2026-05-07 12:45 | -29.29874 | -51.07498 | 5088 ft | 147 kts | 320° |
| 2026-05-07 12:45 | -29.29138 | -51.08316 | 4862 ft | 144 kts | 320° |
| 2026-05-07 12:46 | -29.28422 | -51.09113 | 4666 ft | 144 kts | 320° |
| 2026-05-07 12:46 | -29.27706 | -51.09909 | 4470 ft | 145 kts | 320° |
| 2026-05-07 12:46 | -29.26988 | -51.10707 | 4271 ft | 144 kts | 321° |
| 2026-05-07 12:46 | -29.26273 | -51.11500 | 4083 ft | 145 kts | 322° |
| 2026-05-07 12:47 | -29.25544 | -51.12309 | 3892 ft | 144 kts | 321° |
| 2026-05-07 12:47 | -29.24838 | -51.13092 | 3709 ft | 143 kts | 322° |
| 2026-05-07 12:47 | -29.24129 | -51.13878 | 3519 ft | 142 kts | 322° |
| 2026-05-07 12:47 | -29.23419 | -51.14664 | 3339 ft | 144 kts | 322° |
| 2026-05-07 12:48 | -29.22697 | -51.15461 | 3124 ft | 142 kts | 322° |
| 2026-05-07 12:48 | -29.21981 | -51.16253 | 2936 ft | 145 kts | 320° |
| 2026-05-07 12:48 | -29.21272 | -51.17042 | 2739 ft | 141 kts | 322° |
| 2026-05-07 12:48 | -29.20610 | -51.17784 | 2552 ft | 141 kts | 324° |
| 2026-05-07 12:49 | -29.19937 | -51.18512 | 2473 ft | 118 kts | 316° |
| 2026-05-07 12:49 | -29.19569 | -51.18930 | 2470 ft | 31 kts | 316° |
| 2026-05-07 12:49 | -29.19430 | -51.19079 | 2466 ft | 28 kts | 316° |
| 2026-05-07 12:49 | -29.19308 | -51.19208 | 2466 ft | 16 kts | 327° |
| 2026-05-07 12:50 | -29.19281 | -51.19239 | 2467 ft | 1 kts | 238° |
| 2026-05-07 12:50 | -29.19288 | -51.19232 | 2469 ft | 3 kts | 133° |
| 2026-05-07 12:50 | -29.19340 | -51.19176 | 2470 ft | 13 kts | 135° |
| 2026-05-07 12:50 | -29.19404 | -51.19103 | 2464 ft | 13 kts | 135° |
| 2026-05-07 12:51 | -29.19463 | -51.19038 | 2465 ft | 10 kts | 136° |
| 2026-05-07 12:51 | -29.19517 | -51.18979 | 2466 ft | 16 kts | 136° |
| 2026-05-07 12:51 | -29.19607 | -51.18880 | 2466 ft | 12 kts | 136° |
| 2026-05-07 12:51 | -29.19596 | -51.18813 | 2466 ft | 5 kts | 49° |
| 2026-05-07 12:52 | -29.19590 | -51.18806 | 2466 ft | 3 kts | 49° |
| 2026-05-07 12:52 | -29.19572 | -51.18779 | 2469 ft | 6 kts | 64° |
| 2026-05-07 12:52 | -29.19555 | -51.18734 | 2468 ft | 4 kts | 45° |
| 2026-05-07 12:52 | -29.19544 | -51.18721 | 2470 ft | 0 kts | 47° |
| 2026-05-07 12:53 | -29.19543 | -51.18720 | 2470 ft | 0 kts | 47° |